Flight Track Log - Related Links

Times and Time Zones

All times are in EDT time to prevent confusion due to time zone crossing. See the N478MB flight status page for this flight to view local times or setup timezone preferences in your user account.

Time Position Orientation Groundspeed Altitude Reporting Facility
EDT Latitude Longitude Course Direction KTS MPH feet Rate Location/Type
Tue 09:55:00 AM 35.3471 -79.5703 306° West  Level Estimated
Tue 09:56:00 AM 35.3653 -79.6007 306° West  Level Estimated
Tue 09:57:00 AM 35.3834 -79.6311 306° West  Level Estimated
Tue 09:58:00 AM 35.4016 -79.6615 306° West  Level Estimated
Tue 09:59:00 AM 35.4197 -79.6919 306° West  Level Estimated
Tue 10:00:00 AM 35.4379 -79.7224 306° West  Level Estimated
Tue 10:01:00 AM 35.4560 -79.7528 306° West  Level Estimated
Tue 10:02:00 AM 35.4741 -79.7833 306° West  Level Estimated
Tue 10:03:00 AM 35.4922 -79.8138 306° West  Level Estimated
Tue 10:04:00 AM 35.5103 -79.8443 306° West  Level Estimated
Tue 10:05:00 AM 35.5284 -79.8748 306° West  Level Estimated
Tue 10:06:00 AM 35.5465 -79.9053 306° West  Level Estimated
Tue 10:07:00 AM 35.5646 -79.9359 306° West  Level Estimated
Tue 10:08:00 AM 35.5826 -79.9664 306° West  Level Estimated
Tue 10:09:00 AM 35.6007 -79.9970 306° West  Level Estimated
Tue 10:10:00 AM 35.6187 -80.0275 306° West  Level Estimated
Tue 10:11:00 AM 35.6368 -80.0581 306° West  Level Estimated
Tue 10:12:00 AM 35.6548 -80.0887 306° West  Level Estimated
Tue 10:13:00 AM 35.6729 -80.1193 306° West  Level Estimated
Tue 10:14:00 AM 35.6909 -80.1500 306° West  Level Estimated
Tue 10:15:00 AM 35.7089 -80.1806 306° West  Level Estimated
Tue 10:16:00 AM 35.7269 -80.2113 306° West  Level Estimated
Tue 10:17:00 AM 35.7449 -80.2420 306° West  Level Estimated
Tue 10:18:00 AM 35.7629 -80.2727 306° West  Level Estimated
Tue 10:19:00 AM 35.7809 -80.3034 306° West  Level Estimated
Tue 10:20:00 AM 35.7811 -80.3038 306° West  Level Estimated
Tue 10:21:00 AM 35.7811 -80.3038 122° Southeast  Level Estimated
Tue 10:22:00 AM 35.7811 -80.3038 122° Southeast  Level Estimated
Tue 10:23:00 AM 35.7811 -80.3038 122° Southeast  Level Estimated
Tue 10:24:00 AM 35.7811 -80.3038 122° Southeast  Level Estimated
Tue 10:25:00 AM 35.7811 -80.3038 122° Southeast  Level Estimated
Tue 10:26:00 AM 35.7811 -80.3038 122° Southeast  Level Estimated
Tue 10:27:00 AM 35.7811 -80.3038 122° Southeast  Level Estimated
Tue 10:28:00 AM 35.7811 -80.3038 122° Southeast  Level Estimated
Tue 10:29:00 AM 35.7811 -80.3038 122° Southeast  Level Estimated
Tue 10:30:00 AM 35.7811 -80.3038 122° Southeast  Level Estimated
Tue 10:31:00 AM 35.7811 -80.3038 122° Southeast  Level Estimated
Tue 10:32:00 AM 35.7811 -80.3038 122° Southeast  Level Estimated
Tue 10:33:00 AM 35.7811 -80.3038 122° Southeast  Level Estimated
Tue 10:34:00 AM 35.7811 -80.3038 122° Southeast  Level Estimated
Tue 10:35:00 AM 35.7811 -80.3038 122° Southeast  Level Estimated

Login

Don't have an account? Register now (free) for customized features, flight alerts, and more!